Time;durP1;ratioP1;P1;durP2;ratioP2;P2;SDS_P1;SDS_P2;PMS_P1;PMS_P2;Temp;Humidity;BMP_temperature;BMP_pressure;BME280_temperature;BME280_humidity;BME280_pressure;Samples;Min_cycle;Max_cycle;Signal;HPM_P1;HPM_P2
2022/09/05 00:01:30;;;;;;;;;;;;;;;-155.54;100.00;57697.75;4997573;28;20020;-65
2022/09/05 00:03:58;;;;;;;;;;;;;;;-155.54;100.00;57697.75;5001375;28;20002;-65
2022/09/05 00:06:24;;;;;;;;;;;;;;;-155.54;100.00;57697.75;4994479;28;19997;-65
2022/09/05 00:09:27;;;;;;;;;;;;;;;-155.54;100.00;57697.75;4999584;28;20448;-65
2022/09/05 00:11:57;;;;;;;;;;;;;;;-155.54;100.00;57697.75;4942347;28;19990;-64
2022/09/05 00:14:44;;;;;;;;;;;;;;;-155.54;100.00;57697.75;4941298;28;19983;-64
2022/09/05 00:17:22;;;;;;;;;;;;;;;-155.54;100.00;57697.75;4979075;28;19966;-65
2022/09/05 00:19:53;;;;;;;;;;;;;;;-155.54;100.00;57697.75;4983685;28;19988;-64
2022/09/05 00:22:25;;;;;;;;;;;;;;;-155.54;100.00;57697.75;4993247;28;20009;-63
2022/09/05 00:25:00;;;;;;;;;;;;;;;-155.54;100.00;57697.75;4985329;28;20736;-63
2022/09/05 00:27:44;;;;;;;;;;;;;;;-155.54;100.00;57697.75;4990922;28;19994;-65
2022/09/05 00:30:13;;;;;;;;;;;;;;;-155.54;100.00;57697.75;4990829;28;19990;-64
2022/09/05 00:32:47;;;;;;;;;;;;;;;-155.54;100.00;57697.75;4979688;28;19970;-65
2022/09/05 00:35:17;;;;;;;;;;;;;;;-155.54;100.00;57697.75;4994733;28;20373;-64
2022/09/05 00:37:44;;;;;;;;;;;;;;;-155.54;100.00;57697.75;4975368;28;19966;-65
2022/09/05 00:40:20;;;;;;;;;;;;;;;-155.54;100.00;57697.75;4995324;28;19962;-64
2022/09/05 00:42:50;;;;;;;;;;;;;;;-155.54;100.00;57697.75;4992800;28;19993;-62
2022/09/05 00:45:24;;;;;;;;;;;;;;;-155.54;100.00;57697.75;4996369;28;19974;-64
2022/09/05 00:47:52;;;;;;;;;;;;;;;-155.54;100.00;57697.75;4993735;28;20230;-63
2022/09/05 00:50:35;;;;;;;;;;;;;;;-155.54;100.00;57697.75;4990021;28;20016;-64
2022/09/05 00:53:16;;;;;;;;;;;;;;;-155.54;100.00;57697.75;4994751;28;20609;-65
2022/09/05 00:56:00;;;;;;;;;;;;;;;-155.54;100.00;57697.75;4975981;28;19986;-63
2022/09/05 00:58:48;;;;;;;;;;;;;;;-155.54;100.00;57697.75;4977029;28;20139;-65
2022/09/05 01:01:28;;;;;;;;;;;;;;;-155.54;100.00;57697.75;4994569;28;19978;-64
2022/09/05 01:04:12;;;;;;;;;;;;;;;-155.54;100.00;57697.75;5001318;28;20052;-64
2022/09/05 01:07:07;;;;;;;;;;;;;;;-155.54;100.00;57697.75;5001659;28;20001;-64
2022/09/05 01:09:32;;;;;;;;;;;;;;;-155.54;100.00;57697.75;4984541;28;19977;-64
2022/09/05 01:12:16;;;;;;;;;;;;;;;-155.54;100.00;57697.75;4999391;28;20005;-65
2022/09/05 01:14:43;;;;;;;;;;;;;;;-155.54;100.00;57697.75;5000365;28;20001;-65
2022/09/05 01:17:08;;;;;;;;;;;;;;;-155.54;100.00;57697.75;4998424;28;19981;-65
2022/09/05 01:19:39;;;;;;;;;;;;;;;-155.54;100.00;57697.75;4998063;28;20007;-65
2022/09/05 01:22:23;;;;;;;;;;;;;;;-155.54;100.00;57697.75;4996519;28;19994;-66
2022/09/05 01:25:15;;;;;;;;;;;;;;;-155.54;100.00;57697.75;4996246;28;19981;-65
2022/09/05 01:27:48;;;;;;;;;;;;;;;-155.54;100.00;57697.75;4989853;28;20454;-64
2022/09/05 01:30:25;;;;;;;;;;;;;;;-155.54;100.00;57697.75;4994298;28;19996;-65
2022/09/05 01:32:52;;;;;;;;;;;;;;;-155.54;100.00;57697.75;4975555;28;19981;-63
2022/09/05 01:35:26;;;;;;;;;;;;;;;-155.54;100.00;57697.75;4992955;28;19998;-63
2022/09/05 01:38:05;;;;;;;;;;;;;;;-155.54;100.00;57697.75;4990958;28;19997;-65
2022/09/05 01:40:39;;;;;;;;;;;;;;;-155.54;100.00;57697.75;4996637;28;20454;-63
2022/09/05 01:43:16;;;;;;;;;;;;;;;-155.54;100.00;57697.75;4996406;28;20881;-65
2022/09/05 01:45:51;;;;;;;;;;;;;;;-155.54;100.00;57697.75;4999871;28;19988;-66
2022/09/05 01:48:25;;;;;;;;;;;;;;;-155.54;100.00;57697.75;4976908;28;19973;-65
2022/09/05 01:51:01;;;;;;;;;;;;;;;-155.54;100.00;57697.75;4995465;28;19989;-65
2022/09/05 01:53:36;;;;;;;;;;;;;;;-155.54;100.00;57697.75;4996949;28;19973;-65
2022/09/05 01:56:13;;;;;;;;;;;;;;;-155.54;100.00;57697.75;4977159;28;19993;-64
2022/09/05 01:58:38;;;;;;;;;;;;;;;-155.54;100.00;57697.75;5000295;28;20002;-65
2022/09/05 02:01:03;;;;;;;;;;;;;;;-155.54;100.00;57697.75;4998562;28;20358;-65
2022/09/05 02:03:35;;;;;;;;;;;;;;;-155.54;100.00;57697.75;5000891;28;20603;-65
2022/09/05 02:06:15;;;;;;;;;;;;;;;-155.54;100.00;57697.75;5003414;28;19986;-65
2022/09/05 02:08:47;;;;;;;;;;;;;;;-155.54;100.00;57697.75;4999025;28;19965;-62
2022/09/05 02:11:12;;;;;;;;;;;;;;;-155.54;100.00;57697.75;4982091;28;20378;-66
2022/09/05 02:13:41;;;;;;;;;;;;;;;-155.54;100.00;57697.75;5002655;28;20177;-64
2022/09/05 02:16:10;;;;;;;;;;;;;;;-155.54;100.00;57697.75;5000585;28;20429;-65
2022/09/05 02:18:35;;;;;;;;;;;;;;;-155.54;100.00;57697.75;5000890;28;19987;-65
2022/09/05 02:21:01;;;;;;;;;;;;;;;-155.54;100.00;57697.75;5000514;28;19992;-65
2022/09/05 02:23:30;;;;;;;;;;;;;;;-155.54;100.00;57697.75;4997079;28;19998;-64
2022/09/05 02:26:04;;;;;;;;;;;;;;;-155.54;100.00;57697.75;4983953;28;19970;-65
2022/09/05 02:28:38;;;;;;;;;;;;;;;-155.54;100.00;57697.75;4999231;28;19976;-66
2022/09/05 02:31:06;;;;;;;;;;;;;;;-155.54;100.00;57697.75;5003361;28;20357;-64
2022/09/05 02:33:39;;;;;;;;;;;;;;;-155.54;100.00;57697.75;5002577;28;20515;-64
2022/09/05 02:36:07;;;;;;;;;;;;;;;-155.54;100.00;57697.75;5001663;28;20530;-65
2022/09/05 02:38:48;;;;;;;;;;;;;;;-155.54;100.00;57697.75;4982990;28;20044;-65
2022/09/05 02:41:31;;;;;;;;;;;;;;;-155.54;100.00;57697.75;5002440;28;20171;-64
2022/09/05 02:44:08;;;;;;;;;;;;;;;-155.54;100.00;57697.75;4983119;28;20008;-65
2022/09/05 02:46:40;;;;;;;;;;;;;;;-155.54;100.00;57697.75;4981654;28;20104;-64
2022/09/05 02:49:07;;;;;;;;;;;;;;;-155.54;100.00;57697.75;5000545;28;19991;-64
2022/09/05 02:51:34;;;;;;;;;;;;;;;-155.54;100.00;57697.75;4979673;28;19995;-64
2022/09/05 02:54:10;;;;;;;;;;;;;;;-155.54;100.00;57697.75;5002413;28;20210;-64
2022/09/05 02:56:54;;;;;;;;;;;;;;;-155.54;100.00;57697.75;4980601;28;20034;-65
2022/09/05 02:59:38;;;;;;;;;;;;;;;-155.54;100.00;57697.75;5002832;28;20505;-65
2022/09/05 03:02:24;;;;;;;;;;;;;;;-155.54;100.00;57697.75;4994685;28;20088;-66
2022/09/05 03:04:49;;;;;;;;;;;;;;;-155.54;100.00;57697.75;4981095;28;19970;-63
2022/09/05 03:07:20;;;;;;;;;;;;;;;-155.54;100.00;57697.75;5000129;28;20009;-64
2022/09/05 03:09:45;;;;;;;;;;;;;;;-155.54;100.00;57697.75;5000568;28;19996;-65
2022/09/05 03:12:17;;;;;;;;;;;;;;;-155.54;100.00;57697.75;5000077;28;20423;-65
2022/09/05 03:15:11;;;;;;;;;;;;;;;-155.54;100.00;57697.75;4998568;28;20025;-65
2022/09/05 03:17:37;;;;;;;;;;;;;;;-155.54;100.00;57697.75;4988413;28;20361;-64
2022/09/05 03:20:21;;;;;;;;;;;;;;;-155.54;100.00;57697.75;5002237;28;20616;-65
2022/09/05 03:23:01;;;;;;;;;;;;;;;-155.54;100.00;57697.75;4999120;28;20206;-64
2022/09/05 03:25:35;;;;;;;;;;;;;;;-155.54;100.00;57697.75;5000654;28;20376;-65
2022/09/05 03:28:19;;;;;;;;;;;;;;;-155.54;100.00;57697.75;4983141;28;19986;-64
2022/09/05 03:30:50;;;;;;;;;;;;;;;-155.54;100.00;57697.75;5000835;28;20005;-66
2022/09/05 03:33:15;;;;;;;;;;;;;;;-155.54;100.00;57697.75;4985233;28;19973;-64
2022/09/05 03:35:59;;;;;;;;;;;;;;;-155.54;100.00;57697.75;4998414;28;19990;-63
2022/09/05 03:38:51;;;;;;;;;;;;;;;-155.54;100.00;57697.75;5002108;28;20006;-65
2022/09/05 03:41:20;;;;;;;;;;;;;;;-155.54;100.00;57697.75;4983037;28;19970;-65
2022/09/05 03:43:45;;;;;;;;;;;;;;;-155.54;100.00;57697.75;4999590;28;20006;-63
2022/09/05 03:46:16;;;;;;;;;;;;;;;-155.54;100.00;57697.75;5000676;28;19997;-64
2022/09/05 03:48:41;;;;;;;;;;;;;;;-155.54;100.00;57697.75;5002041;28;20357;-65
2022/09/05 03:51:12;;;;;;;;;;;;;;;-155.54;100.00;57697.75;5000811;28;19998;-65
2022/09/05 03:53:43;;;;;;;;;;;;;;;-155.54;100.00;57697.75;4996483;28;20024;-64
2022/09/05 03:56:25;;;;;;;;;;;;;;;-155.54;100.00;57697.75;4985187;28;20655;-66
2022/09/05 03:59:02;;;;;;;;;;;;;;;-155.54;100.00;57697.75;4981284;28;20048;-63
2022/09/05 04:01:39;;;;;;;;;;;;;;;-155.54;100.00;57697.75;4999275;28;19973;-65
2022/09/05 04:04:11;;;;;;;;;;;;;;;-155.54;100.00;57697.75;5000188;28;20055;-65
2022/09/05 04:06:43;;;;;;;;;;;;;;;-155.54;100.00;57697.75;4997853;28;20064;-65
2022/09/05 04:09:14;;;;;;;;;;;;;;;-155.54;100.00;57697.75;5001513;28;20419;-63
2022/09/05 04:11:45;;;;;;;;;;;;;;;-155.54;100.00;57697.75;5000795;28;19998;-64
2022/09/05 04:14:11;;;;;;;;;;;;;;;-155.54;100.00;57697.75;5000944;28;20468;-65
2022/09/05 04:16:44;;;;;;;;;;;;;;;-155.54;100.00;57697.75;5001402;28;20172;-64
2022/09/05 04:19:12;;;;;;;;;;;;;;;-155.54;100.00;57697.75;4979985;28;20116;-64
2022/09/05 04:21:57;;;;;;;;;;;;;;;-155.54;100.00;57697.75;4983416;28;20065;-64
2022/09/05 04:24:26;;;;;;;;;;;;;;;-155.54;100.00;57697.75;4995715;28;20523;-65
2022/09/05 04:27:09;;;;;;;;;;;;;;;-155.54;100.00;57697.75;4996852;28;20409;-64
2022/09/05 04:29:54;;;;;;;;;;;;;;;-155.54;100.00;57697.75;4997760;28;19970;-66
2022/09/05 04:32:37;;;;;;;;;;;;;;;-155.54;100.00;57697.75;5000976;28;20430;-65
2022/09/05 04:35:05;;;;;;;;;;;;;;;-155.54;100.00;57697.75;4998942;28;19994;-66
2022/09/05 04:37:33;;;;;;;;;;;;;;;-155.54;100.00;57697.75;5002416;28;19998;-66
2022/09/05 04:40:18;;;;;;;;;;;;;;;-155.54;100.00;57697.75;4998303;28;20509;-65
2022/09/05 04:42:44;;;;;;;;;;;;;;;-155.54;100.00;57697.75;4998024;28;20005;-65
2022/09/05 04:45:10;;;;;;;;;;;;;;;-155.54;100.00;57697.75;5000870;28;19969;-65
2022/09/05 04:47:36;;;;;;;;;;;;;;;-155.54;100.00;57697.75;4980760;28;20378;-64
2022/09/05 04:50:04;;;;;;;;;;;;;;;-155.54;100.00;57697.75;4998240;28;20253;-65
2022/09/05 04:52:33;;;;;;;;;;;;;;;-155.54;100.00;57697.75;5000487;28;19982;-64
2022/09/05 04:55:05;;;;;;;;;;;;;;;-155.54;100.00;57697.75;4999645;28;20632;-65
2022/09/05 04:57:32;;;;;;;;;;;;;;;-155.54;100.00;57697.75;4999165;28;19985;-66
2022/09/05 05:00:05;;;;;;;;;;;;;;;-155.54;100.00;57697.75;4999666;28;20065;-65
2022/09/05 05:02:35;;;;;;;;;;;;;;;-155.54;100.00;57697.75;4979368;28;20470;-65
2022/09/05 05:05:01;;;;;;;;;;;;;;;-155.54;100.00;57697.75;4996990;28;19966;-66
2022/09/05 05:07:38;;;;;;;;;;;;;;;-155.54;100.00;57697.75;5001561;28;20076;-65
2022/09/05 05:10:03;;;;;;;;;;;;;;;-155.54;100.00;57697.75;5000824;28;19992;-65
2022/09/05 05:13:00;;;;;;;;;;;;;;;-155.54;100.00;57697.75;4999966;28;19982;-63
2022/09/05 05:15:25;;;;;;;;;;;;;;;-155.54;100.00;57697.75;4978341;28;20041;-65
2022/09/05 05:17:52;;;;;;;;;;;;;;;-155.54;100.00;57697.75;5000805;28;20737;-65
2022/09/05 05:20:21;;;;;;;;;;;;;;;-155.54;100.00;57697.75;4996482;28;19966;-65
2022/09/05 05:22:55;;;;;;;;;;;;;;;-155.54;100.00;57697.75;4997704;28;20004;-65
2022/09/05 05:25:20;;;;;;;;;;;;;;;-155.54;100.00;57697.75;4979733;28;20442;-64
2022/09/05 05:27:48;;;;;;;;;;;;;;;-155.54;100.00;57697.75;4996904;28;19994;-63
2022/09/05 05:30:22;;;;;;;;;;;;;;;-155.54;100.00;57697.75;4981334;28;19986;-65
2022/09/05 05:32:47;;;;;;;;;;;;;;;-155.54;100.00;57697.75;4980257;28;20461;-63
2022/09/05 05:35:13;;;;;;;;;;;;;;;-155.54;100.00;57697.75;4997145;28;20400;-65
2022/09/05 05:37:49;;;;;;;;;;;;;;;-155.54;100.00;57697.75;4993354;28;20218;-65
2022/09/05 05:40:14;;;;;;;;;;;;;;;-155.54;100.00;57697.75;4988017;28;20076;-65
2022/09/05 05:42:39;;;;;;;;;;;;;;;-155.54;100.00;57697.75;4989534;28;20002;-65
2022/09/05 05:45:06;;;;;;;;;;;;;;;-155.54;100.00;57697.75;4978367;28;20201;-64
2022/09/05 05:47:35;;;;;;;;;;;;;;;-155.54;100.00;57697.75;4982754;28;20009;-64
2022/09/05 05:50:20;;;;;;;;;;;;;;;-155.54;100.00;57697.75;4982002;28;19997;-64
2022/09/05 05:52:52;;;;;;;;;;;;;;;-155.54;100.00;57697.75;4996647;28;20581;-63
2022/09/05 05:55:17;;;;;;;;;;;;;;;-155.54;100.00;57697.75;4980208;28;19993;-64
2022/09/05 05:57:48;;;;;;;;;;;;;;;-155.54;100.00;57697.75;4995970;28;19977;-65
2022/09/05 06:00:20;;;;;;;;;;;;;;;-155.54;100.00;57697.75;4999928;28;19973;-64
2022/09/05 06:02:46;;;;;;;;;;;;;;;-155.54;100.00;57697.75;4981054;28;20002;-63
2022/09/05 06:05:26;;;;;;;;;;;;;;;-155.54;100.00;57697.75;4997050;28;19977;-64
2022/09/05 06:08:04;;;;;;;;;;;;;;;-155.54;100.00;57697.75;4981371;28;20390;-66
2022/09/05 06:10:29;;;;;;;;;;;;;;;-155.54;100.00;57697.75;4979922;28;20089;-65
2022/09/05 06:13:13;;;;;;;;;;;;;;;-155.54;100.00;57697.75;4999194;28;20459;-63
2022/09/05 06:15:58;;;;;;;;;;;;;;;-155.54;100.00;57697.75;4991394;28;20429;-62
2022/09/05 06:18:29;;;;;;;;;;;;;;;-155.54;100.00;57697.75;4998739;28;20000;-64
2022/09/05 06:20:54;;;;;;;;;;;;;;;-155.54;100.00;57697.75;4994875;28;20427;-64
2022/09/05 06:23:22;;;;;;;;;;;;;;;-155.54;100.00;57697.75;4988656;28;20027;-64
2022/09/05 06:26:08;;;;;;;;;;;;;;;-155.54;100.00;57697.75;4998041;28;19976;-66
2022/09/05 06:28:52;;;;;;;;;;;;;;;-155.54;100.00;57697.75;4989005;28;20135;-63
2022/09/05 06:31:21;;;;;;;;;;;;;;;-155.54;100.00;57697.75;4987326;28;19989;-65
2022/09/05 06:34:05;;;;;;;;;;;;;;;-155.54;100.00;57697.75;4994276;28;20004;-65
2022/09/05 06:36:31;;;;;;;;;;;;;;;-155.54;100.00;57697.75;4996291;28;19976;-65
2022/09/05 06:39:11;;;;;;;;;;;;;;;-155.54;100.00;57697.75;4995230;28;19988;-64
2022/09/05 06:41:36;;;;;;;;;;;;;;;-155.54;100.00;57697.75;4991118;28;19978;-64
2022/09/05 06:44:21;;;;;;;;;;;;;;;-155.54;100.00;57697.75;4984769;28;20005;-66
2022/09/05 06:46:46;;;;;;;;;;;;;;;-155.54;100.00;57697.75;4991312;28;19944;-65
2022/09/05 06:49:16;;;;;;;;;;;;;;;-155.54;100.00;57697.75;5001510;28;20300;-66
2022/09/05 06:51:47;;;;;;;;;;;;;;;-155.54;100.00;57697.75;4996528;28;20230;-65
2022/09/05 06:54:18;;;;;;;;;;;;;;;-155.54;100.00;57697.75;4995729;28;20569;-64
2022/09/05 06:57:03;;;;;;;;;;;;;;;-155.54;100.00;57697.75;4998498;28;19986;-66
2022/09/05 06:59:34;;;;;;;;;;;;;;;-155.54;100.00;57697.75;4994966;28;20288;-66
2022/09/05 07:02:06;;;;;;;;;;;;;;;-155.54;100.00;57697.75;5002909;28;20327;-65
2022/09/05 07:04:33;;;;;;;;;;;;;;;-155.54;100.00;57697.75;4987635;28;19957;-65
2022/09/05 07:07:14;;;;;;;;;;;;;;;-155.54;100.00;57697.75;4995007;28;20023;-65
2022/09/05 07:09:40;;;;;;;;;;;;;;;-155.54;100.00;57697.75;4993687;28;20032;-66
2022/09/05 07:12:11;;;;;;;;;;;;;;;-155.54;100.00;57697.75;4996649;28;20056;-66
2022/09/05 07:15:00;;;;;;;;;;;;;;;-155.54;100.00;57697.75;4994436;28;19925;-66
2022/09/05 07:17:32;;;;;;;;;;;;;;;-155.54;100.00;57697.75;4962677;28;20412;-65
2022/09/05 07:20:00;;;;;;;;;;;;;;;-155.54;100.00;57697.75;4994395;28;20115;-65
2022/09/05 07:22:31;;;;;;;;;;;;;;;-155.54;100.00;57697.75;4971930;28;19921;-66
2022/09/05 07:24:56;;;;;;;;;;;;;;;-155.54;100.00;57697.75;4988042;28;20456;-66
2022/09/05 07:27:35;;;;;;;;;;;;;;;-155.54;100.00;57697.75;4972451;28;19987;-66
2022/09/05 07:30:00;;;;;;;;;;;;;;;-155.54;100.00;57697.75;4987129;28;20044;-66
2022/09/05 07:32:26;;;;;;;;;;;;;;;-155.54;100.00;57697.75;5001086;28;20005;-66
2022/09/05 07:34:51;;;;;;;;;;;;;;;-155.54;100.00;57697.75;4992504;28;19983;-66
2022/09/05 07:37:20;;;;;;;;;;;;;;;-155.54;100.00;57697.75;4996246;28;19918;-65
2022/09/05 07:39:57;;;;;;;;;;;;;;;-155.54;100.00;57697.75;4993531;28;19968;-66
2022/09/05 07:42:26;;;;;;;;;;;;;;;-155.54;100.00;57697.75;4999004;28;19925;-64
2022/09/05 07:44:55;;;;;;;;;;;;;;;-155.54;100.00;57697.75;4989356;28;19929;-65
2022/09/05 07:47:22;;;;;;;;;;;;;;;-155.54;100.00;57697.75;5000381;28;19930;-65
2022/09/05 07:49:47;;;;;;;;;;;;;;;-155.54;100.00;57697.75;4977180;28;19917;-66
2022/09/05 07:52:15;;;;;;;;;;;;;;;-155.54;100.00;57697.75;4975622;28;19918;-65
2022/09/05 07:54:42;;;;;;;;;;;;;;;-155.54;100.00;57697.75;4997203;28;20666;-66
2022/09/05 07:57:08;;;;;;;;;;;;;;;-155.54;100.00;57697.75;4977774;28;19926;-66
2022/09/05 07:59:35;;;;;;;;;;;;;;;-155.54;100.00;57697.75;4981269;28;19922;-66
2022/09/05 08:02:00;;;;;;;;;;;;;;;-155.54;100.00;57697.75;4979403;28;20010;-66
2022/09/05 08:04:29;;;;;;;;;;;;;;;-155.54;100.00;57697.75;4983328;28;20038;-65
2022/09/05 08:06:55;;;;;;;;;;;;;;;-155.54;100.00;57697.75;4998411;28;19945;-65
2022/09/05 08:09:22;;;;;;;;;;;;;;;-155.54;100.00;57697.75;4990313;28;19977;-66
2022/09/05 08:11:48;;;;;;;;;;;;;;;-155.54;100.00;57697.75;4994878;28;20371;-65
2022/09/05 08:14:17;;;;;;;;;;;;;;;-155.54;100.00;57697.75;4995932;28;19936;-65
2022/09/05 08:16:43;;;;;;;;;;;;;;;-155.54;100.00;57697.75;4979217;28;19922;-66
2022/09/05 08:19:11;;;;;;;;;;;;;;;-155.54;100.00;57697.75;4987593;28;19926;-66
2022/09/05 08:21:40;;;;;;;;;;;;;;;-155.54;100.00;57697.75;4997887;28;19936;-66
2022/09/05 08:24:08;;;;;;;;;;;;;;;-155.54;100.00;57697.75;4974494;28;19941;-67
2022/09/05 08:26:41;;;;;;;;;;;;;;;-155.54;100.00;57697.75;4974172;28;19968;-67
2022/09/05 08:29:09;;;;;;;;;;;;;;;-155.54;100.00;57697.75;4995576;28;19921;-66
2022/09/05 08:31:48;;;;;;;;;;;;;;;-155.54;100.00;57697.75;4980556;28;20307;-66
2022/09/05 08:34:18;;;;;;;;;;;;;;;-155.54;100.00;57697.75;4998005;28;19921;-66
2022/09/05 08:36:45;;;;;;;;;;;;;;;-155.54;100.00;57697.75;4989574;28;19929;-66
2022/09/05 08:39:10;;;;;;;;;;;;;;;-155.54;100.00;57697.75;4992844;28;20012;-78
2022/09/05 08:41:41;;;;;;;;;;;;;;;-155.54;100.00;57697.75;4973289;28;19983;-71
2022/09/05 08:44:20;;;;;;;;;;;;;;;-155.54;100.00;57697.75;4992881;28;19929;-67
2022/09/05 08:47:07;;;;;;;;;;;;;;;-155.54;100.00;57697.75;4979921;28;19930;-67
2022/09/05 08:50:04;;;;;;;;;;;;;;;-155.54;100.00;57697.75;4974977;28;19922;-67
2022/09/05 08:52:33;;;;;;;;;;;;;;;-155.54;100.00;57697.75;4963687;28;20015;-66
2022/09/05 08:55:17;;;;;;;;;;;;;;;-155.54;100.00;57697.75;4977100;28;19925;-68
2022/09/05 08:58:01;;;;;;;;;;;;;;;-155.54;100.00;57697.75;4970205;28;19937;-69
2022/09/05 09:00:27;;;;;;;;;;;;;;;-155.54;100.00;57697.75;4977941;28;19956;-68
2022/09/05 09:02:59;;;;;;;;;;;;;;;-155.54;100.00;57697.75;4974467;28;20021;-66
2022/09/05 09:05:27;;;;;;;;;;;;;;;-155.54;100.00;57697.75;4972702;28;19973;-67
2022/09/05 09:07:54;;;;;;;;;;;;;;;-155.54;100.00;57697.75;4976883;28;19949;-68
2022/09/05 09:10:26;;;;;;;;;;;;;;;-155.54;100.00;57697.75;4974176;28;20092;-68
2022/09/05 09:12:54;;;;;;;;;;;;;;;-155.54;100.00;57697.75;4979699;28;19936;-65
2022/09/05 09:15:21;;;;;;;;;;;;;;;-155.54;100.00;57697.75;4976547;28;19980;-68
2022/09/05 09:17:48;;;;;;;;;;;;;;;-155.54;100.00;57697.75;4976943;28;20310;-67
2022/09/05 09:20:25;;;;;;;;;;;;;;;-155.54;100.00;57697.75;4969113;28;19945;-66
2022/09/05 09:22:58;;;;;;;;;;;;;;;-155.54;100.00;57697.75;4976068;28;20033;-69
2022/09/05 09:25:23;;;;;;;;;;;;;;;-155.54;100.00;57697.75;4976378;28;19972;-67
2022/09/05 09:28:09;;;;;;;;;;;;;;;-155.54;100.00;57697.75;4975780;28;19957;-67
2022/09/05 09:30:34;;;;;;;;;;;;;;;-155.54;100.00;57697.75;4973735;28;20428;-67
2022/09/05 09:33:03;;;;;;;;;;;;;;;-155.54;100.00;57697.75;4979588;28;19922;-67
2022/09/05 09:35:43;;;;;;;;;;;;;;;-155.54;100.00;57697.75;4975528;28;19926;-67
2022/09/05 09:38:12;;;;;;;;;;;;;;;-155.54;100.00;57697.75;4973715;28;19944;-67
2022/09/05 09:40:47;;;;;;;;;;;;;;;-155.54;100.00;57697.75;4974908;28;19929;-68
2022/09/05 09:43:19;;;;;;;;;;;;;;;-155.54;100.00;57697.75;4974893;28;20327;-68
2022/09/05 09:45:44;;;;;;;;;;;;;;;-155.54;100.00;57697.75;4980736;28;20537;-68
2022/09/05 09:48:09;;;;;;;;;;;;;;;-155.54;100.00;57697.75;4994831;28;19932;-67
2022/09/05 09:50:41;;;;;;;;;;;;;;;-155.54;100.00;57697.75;4998860;28;19917;-68
2022/09/05 09:53:26;;;;;;;;;;;;;;;-155.54;100.00;57697.75;4997265;28;20418;-68
2022/09/05 09:56:10;;;;;;;;;;;;;;;-155.54;100.00;57697.75;5000291;28;19922;-67
2022/09/05 09:58:41;;;;;;;;;;;;;;;-155.54;100.00;57697.75;4994889;28;20381;-68
2022/09/05 10:01:07;;;;;;;;;;;;;;;-155.54;100.00;57697.75;4996044;28;20367;-67
2022/09/05 10:03:50;;;;;;;;;;;;;;;-155.54;100.00;57697.75;4993210;28;19933;-67
2022/09/05 10:06:16;;;;;;;;;;;;;;;-155.54;100.00;57697.75;4994469;28;19955;-68
2022/09/05 10:08:44;;;;;;;;;;;;;;;-155.54;100.00;57697.75;4998291;28;20091;-66
2022/09/05 10:11:11;;;;;;;;;;;;;;;-155.54;100.00;57697.75;4979357;28;20272;-68
2022/09/05 10:13:48;;;;;;;;;;;;;;;-155.54;100.00;57697.75;4979641;28;19925;-68
2022/09/05 10:16:19;;;;;;;;;;;;;;;-155.54;100.00;57697.75;4995991;28;20344;-68
2022/09/05 10:18:47;;;;;;;;;;;;;;;-155.54;100.00;57697.75;4997457;28;20406;-67
2022/09/05 10:21:15;;;;;;;;;;;;;;;-155.54;100.00;57697.75;4996853;28;20461;-69
2022/09/05 10:23:53;;;;;;;;;;;;;;;-155.54;100.00;57697.75;4998639;28;19936;-68
2022/09/05 10:26:37;;;;;;;;;;;;;;;-155.54;100.00;57697.75;4983016;28;19926;-67
2022/09/05 10:29:10;;;;;;;;;;;;;;;-155.54;100.00;57697.75;4999274;28;19925;-67
2022/09/05 10:31:48;;;;;;;;;;;;;;;-155.54;100.00;57697.75;4997073;28;19979;-68
2022/09/05 10:34:15;;;;;;;;;;;;;;;-155.54;100.00;57697.75;4993982;28;19998;-67
2022/09/05 10:36:40;;;;;;;;;;;;;;;-155.54;100.00;57697.75;4980921;28;20441;-66
2022/09/05 10:39:15;;;;;;;;;;;;;;;-155.54;100.00;57697.75;4977453;28;20024;-68
2022/09/05 10:41:47;;;;;;;;;;;;;;;-155.54;100.00;57697.75;5002008;28;20913;-67
2022/09/05 10:44:13;;;;;;;;;;;;;;;-155.54;100.00;57697.75;4995376;28;19934;-69
2022/09/05 10:46:46;;;;;;;;;;;;;;;-155.54;100.00;57697.75;5001617;28;20516;-67
2022/09/05 10:49:12;;;;;;;;;;;;;;;-155.54;100.00;57697.75;4997856;28;20534;-67
2022/09/05 10:51:56;;;;;;;;;;;;;;;-155.54;100.00;57697.75;4998700;28;20279;-68
2022/09/05 10:54:22;;;;;;;;;;;;;;;-155.54;100.00;57697.75;4989786;28;19971;-69
2022/09/05 10:56:48;;;;;;;;;;;;;;;-155.54;100.00;57697.75;5003706;28;19925;-67
2022/09/05 10:59:34;;;;;;;;;;;;;;;-155.54;100.00;57697.75;4998474;28;20025;-67
2022/09/05 11:02:04;;;;;;;;;;;;;;;-155.54;100.00;57697.75;4976511;28;19972;-68
2022/09/05 11:04:44;;;;;;;;;;;;;;;-155.54;100.00;57697.75;4985037;28;19985;-66
2022/09/05 11:07:17;;;;;;;;;;;;;;;-155.54;100.00;57697.75;4977636;28;20441;-67
2022/09/05 11:09:58;;;;;;;;;;;;;;;-155.54;100.00;57697.75;4999057;28;20028;-69
2022/09/05 11:12:35;;;;;;;;;;;;;;;-155.54;100.00;57697.75;4996760;28;19921;-69
2022/09/05 11:15:03;;;;;;;;;;;;;;;-155.54;100.00;57697.75;4997650;28;19929;-69
2022/09/05 11:17:43;;;;;;;;;;;;;;;-155.54;100.00;57697.75;4979771;28;19921;-67
2022/09/05 11:20:09;;;;;;;;;;;;;;;-155.54;100.00;57697.75;4979497;28;19930;-67
2022/09/05 11:22:37;;;;;;;;;;;;;;;-155.54;100.00;57697.75;4993892;28;19925;-67
2022/09/05 11:25:03;;;;;;;;;;;;;;;-155.54;100.00;57697.75;4996820;28;19933;-67
2022/09/05 11:27:35;;;;;;;;;;;;;;;-155.54;100.00;57697.75;4996037;28;19922;-68
2022/09/05 11:30:04;;;;;;;;;;;;;;;-155.54;100.00;57697.75;4980260;28;19922;-68
2022/09/05 11:32:29;;;;;;;;;;;;;;;-155.54;100.00;57697.75;5002096;28;20433;-68
2022/09/05 11:35:01;;;;;;;;;;;;;;;-155.54;100.00;57697.75;4997771;28;19987;-68
2022/09/05 11:37:38;;;;;;;;;;;;;;;-155.54;100.00;57697.75;4998154;28;19965;-67
2022/09/05 11:40:22;;;;;;;;;;;;;;;-155.54;100.00;57697.75;4994431;28;20061;-68
2022/09/05 11:42:51;;;;;;;;;;;;;;;-155.54;100.00;57697.75;4999447;28;20237;-68
2022/09/05 11:45:16;;;;;;;;;;;;;;;-155.54;100.00;57697.75;4984558;28;19964;-68
2022/09/05 11:47:49;;;;;;;;;;;;;;;-155.54;100.00;57697.75;4996222;28;20364;-68
2022/09/05 11:50:20;;;;;;;;;;;;;;;-155.54;100.00;57697.75;4983363;28;19925;-67
2022/09/05 11:53:00;;;;;;;;;;;;;;;-155.54;100.00;57697.75;5003230;28;19953;-68
2022/09/05 11:55:25;;;;;;;;;;;;;;;-155.54;100.00;57697.75;4980511;28;20386;-68
2022/09/05 11:58:03;;;;;;;;;;;;;;;-155.54;100.00;57697.75;5001001;28;19928;-68
2022/09/05 12:00:32;;;;;;;;;;;;;;;-155.54;100.00;57697.75;4998007;28;19972;-67
2022/09/05 12:03:10;;;;;;;;;;;;;;;-155.54;100.00;57697.75;5002014;28;19933;-67
2022/09/05 12:05:39;;;;;;;;;;;;;;;-155.54;100.00;57697.75;4994894;28;20462;-68
2022/09/05 12:08:10;;;;;;;;;;;;;;;-155.54;100.00;57697.75;4984460;28;20009;-68
2022/09/05 12:11:02;;;;;;;;;;;;;;;-155.54;100.00;57697.75;4996617;28;19948;-69
2022/09/05 12:13:37;;;;;;;;;;;;;;;-155.54;100.00;57697.75;4986435;28;19939;-68
2022/09/05 12:16:16;;;;;;;;;;;;;;;-155.54;100.00;57697.75;4983233;28;19925;-68
2022/09/05 12:19:04;;;;;;;;;;;;;;;-155.54;100.00;57697.75;5002654;28;19917;-67
2022/09/05 12:21:34;;;;;;;;;;;;;;;-155.54;100.00;57697.75;4971224;28;20374;-68
2022/09/05 12:24:02;;;;;;;;;;;;;;;-155.54;100.00;57697.75;4979083;28;20333;-68
2022/09/05 12:26:30;;;;;;;;;;;;;;;-155.54;100.00;57697.75;4996870;28;20440;-68
2022/09/05 12:29:14;;;;;;;;;;;;;;;-155.54;100.00;57697.75;4996069;28;19960;-69
2022/09/05 12:31:44;;;;;;;;;;;;;;;-155.54;100.00;57697.75;4994698;28;19921;-67
2022/09/05 12:34:17;;;;;;;;;;;;;;;-155.54;100.00;57697.75;4980893;28;19937;-68
2022/09/05 12:36:43;;;;;;;;;;;;;;;-155.54;100.00;57697.75;5000614;28;19929;-68
2022/09/05 12:39:08;;;;;;;;;;;;;;;-155.54;100.00;57697.75;4973792;28;20441;-67
2022/09/05 12:42:01;;;;;;;;;;;;;;;-155.54;100.00;57697.75;5000698;28;19925;-67
2022/09/05 12:44:53;;;;;;;;;;;;;;;-155.54;100.00;57697.75;4984585;28;20429;-68
2022/09/05 12:47:19;;;;;;;;;;;;;;;-155.54;100.00;57697.75;4975213;28;19935;-68